Time;durP1;ratioP1;P1;durP2;ratioP2;P2;SDS_P1;SDS_P2;PMS_P1;PMS_P2;Temp;Humidity;BMP_temperature;BMP_pressure;BME280_temperature;BME280_humidity;BME280_pressure;Samples;Min_cycle;Max_cycle;Signal;HPM_P1;HPM_P2
2022/05/22 00:00:15;;;;;;;0.30;0.30;;;;;;;10.25;100.00;99977.22;7400681;19;20010;-92
2022/05/22 00:02:42;;;;;;;0.63;0.55;;;;;;;10.28;100.00;99970.72;7406152;19;20453;-92
2022/05/22 00:05:11;;;;;;;3.70;0.65;;;;;;;10.32;100.00;99964.97;7398492;19;20007;-92
2022/05/22 00:07:38;;;;;;;1.58;1.10;;;;;;;10.38;100.00;99969.41;7398044;19;20014;-92
2022/05/22 00:10:04;;;;;;;2.55;0.40;;;;;;;10.46;100.00;99962.25;7397910;19;20006;-91
2022/05/22 00:12:31;;;;;;;0.75;0.75;;;;;;;10.57;100.00;99970.84;7400980;19;20013;-92
2022/05/22 00:14:57;;;;;;;1.30;1.15;;;;;;;10.63;100.00;99962.66;7398078;19;20039;-92
2022/05/22 00:17:23;;;;;;;1.05;1.05;;;;;;;10.72;100.00;99964.59;7400290;19;20019;-92
2022/05/22 00:19:49;;;;;;;3.97;0.70;;;;;;;10.80;100.00;99963.78;7399149;19;20022;-92
2022/05/22 00:22:16;;;;;;;2.15;0.65;;;;;;;10.91;100.00;99971.59;7402271;19;20009;-92
2022/05/22 00:24:42;;;;;;;0.50;0.50;;;;;;;10.95;100.00;99961.81;7398080;19;20035;-91
2022/05/22 00:27:08;;;;;;;4.18;0.63;;;;;;;11.02;100.00;99964.22;7396613;19;20014;-91
2022/05/22 00:29:36;;;;;;;1.90;1.17;;;;;;;11.08;100.00;99955.97;7398770;19;20457;-92
2022/05/22 00:32:03;;;;;;;1.23;0.57;;;;;;;11.10;100.00;99947.91;7400060;19;20090;-91
2022/05/22 00:34:30;;;;;;;0.38;0.35;;;;;;;11.11;100.00;99947.44;7394160;19;20021;-92
2022/05/22 00:36:56;;;;;;;2.03;0.93;;;;;;;11.18;100.00;99935.13;7399952;19;20019;-91
2022/05/22 00:39:23;;;;;;;4.57;0.68;;;;;;;11.20;100.00;99939.00;7398954;19;20014;-92
2022/05/22 00:41:53;;;;;;;0.85;0.68;;;;;;;11.22;100.00;99930.13;7400378;19;20588;-92
2022/05/22 00:44:20;;;;;;;1.23;0.37;;;;;;;11.26;100.00;99931.50;7397156;19;20011;-93
2022/05/22 00:46:48;;;;;;;2.15;0.70;;;;;;;11.28;100.00;99931.03;7396832;19;20035;-92
2022/05/22 00:49:28;;;;;;;2.83;0.98;;;;;;;11.30;100.00;99925.75;7395702;19;20014;-92
2022/05/22 00:52:15;;;;;;;1.45;1.00;;;;;;;11.37;100.00;99931.72;7398029;19;20018;-92
2022/05/22 00:54:45;;;;;;;4.47;0.73;;;;;;;11.44;100.00;99924.97;7396190;19;20007;-91
2022/05/22 00:57:28;;;;;;;4.75;1.17;;;;;;;11.37;100.00;99930.94;7398726;19;20050;-92
2022/05/22 01:00:04;;;;;;;1.00;0.40;;;;;;;11.44;100.00;99927.78;7398043;19;20028;-92
2022/05/22 01:03:26;;;;;;;0.75;0.73;;;;;;;11.52;100.00;99930.97;7401193;19;20015;-92
2022/05/22 01:05:19;;;;;;;0.40;0.40;;;;;;;11.61;100.00;99916.94;7395914;19;20026;-92
2022/05/22 01:07:46;;;;;;;0.70;0.52;;;;;;;11.66;100.00;99907.88;7394577;19;20014;-91
2022/05/22 01:10:13;;;;;;;0.45;0.45;;;;;;;11.66;100.00;99907.88;7394610;19;20011;-91
2022/05/22 01:12:42;;;;;;;3.03;0.75;;;;;;;11.66;100.00;99902.28;7399995;19;20686;-91
2022/05/22 01:15:10;;;;;;;0.82;0.32;;;;;;;11.67;100.00;99899.06;7395515;19;20081;-91
2022/05/22 01:17:46;;;;;;;0.30;0.30;;;;;;;11.67;100.00;99896.28;7398110;19;20025;-92
2022/05/22 01:20:14;;;;;;;0.20;0.20;;;;;;;11.67;100.00;99899.06;7395390;19;20386;-91
2022/05/22 01:22:41;;;;;;;0.30;0.28;;;;;;;11.64;100.00;99886.03;7400899;19;20002;-91
2022/05/22 01:25:09;;;;;;;0.45;0.45;;;;;;;11.61;100.00;99889.78;7396550;19;20010;-92
2022/05/22 01:27:37;;;;;;;1.13;0.63;;;;;;;11.54;100.00;99884.63;7395895;19;20015;-91
2022/05/22 01:30:33;;;;;;;0.50;0.50;;;;;;;11.45;100.00;99881.91;7395043;19;20469;-91
2022/05/22 01:33:02;;;;;;;0.30;0.30;;;;;;;11.36;100.00;99873.63;7399600;19;20457;-93
2022/05/22 01:35:29;;;;;;;0.20;0.20;;;;;;;11.25;100.00;99879.78;7395388;19;20086;-92
2022/05/22 01:37:59;;;;;;;0.52;0.40;;;;;;;11.17;100.00;99878.63;7395451;19;20099;-92
2022/05/22 01:40:26;;;;;;;3.92;0.55;;;;;;;11.13;100.00;99880.06;7398599;19;20376;-91
2022/05/22 01:42:53;;;;;;;0.73;0.65;;;;;;;11.10;100.00;99881.78;7400879;19;20016;-92
2022/05/22 01:45:25;;;;;;;0.75;0.35;;;;;;;11.13;100.00;99880.81;7394738;19;20021;-92
2022/05/22 01:47:53;;;;;;;3.03;0.57;;;;;;;11.19;100.00;99875.38;7394534;19;20025;-92
2022/05/22 01:50:24;;;;;;;1.33;1.00;;;;;;;11.26;100.00;99875.00;7394807;19;20017;-92
2022/05/22 01:52:52;;;;;;;1.48;1.38;;;;;;;11.32;100.00;99873.06;7398990;19;20026;-92
2022/05/22 01:55:18;;;;;;;0.43;0.43;;;;;;;11.37;100.00;99875.16;7395424;19;20039;-92
2022/05/22 01:57:47;;;;;;;0.20;0.20;;;;;;;11.34;100.00;99867.78;7395259;19;20019;-92
2022/05/22 02:00:18;;;;;;;1.88;0.77;;;;;;;11.37;100.00;99858.44;7396537;19;20015;-92
2022/05/22 02:02:44;;;;;;;0.45;0.45;;;;;;;11.50;100.00;99856.13;7401855;19;20078;-92
2022/05/22 02:05:17;;;;;;;0.85;0.57;;;;;;;11.51;100.00;99846.53;7394519;19;20107;-92
2022/05/22 02:10:31;;;;;;;3.85;0.90;;;;;;;11.59;100.00;99846.88;7394934;19;20017;-92
2022/05/22 02:12:58;;;;;;;1.17;0.30;;;;;;;11.67;100.00;99850.88;7397156;19;20475;-92
2022/05/22 02:15:24;;;;;;;0.55;0.28;;;;;;;11.71;100.00;99851.44;7394314;19;20039;-92
2022/05/22 02:17:51;;;;;;;1.83;0.40;;;;;;;11.72;100.00;99853.72;7393812;19;20006;-91
2022/05/22 02:20:18;;;;;;;0.30;0.30;;;;;;;11.78;100.00;99848.25;7395592;19;20011;-92
2022/05/22 02:22:47;;;;;;;0.45;0.40;;;;;;;11.81;100.00;99850.84;7401103;19;20025;-91
2022/05/22 02:25:17;;;;;;;1.95;1.10;;;;;;;11.84;100.00;99847.09;7394512;19;20477;-92
2022/05/22 02:27:44;;;;;;;2.00;1.15;;;;;;;11.86;100.00;99844.59;7394478;19;20293;-94
2022/05/22 02:30:14;;;;;;;0.20;0.20;;;;;;;11.88;100.00;99847.66;7394897;19;20073;-92
2022/05/22 02:32:40;;;;;;;1.73;0.50;;;;;;;11.90;100.00;99850.72;7397089;19;20035;-92
2022/05/22 02:35:09;;;;;;;8.45;0.65;;;;;;;11.93;100.00;99844.16;7393419;19;20028;-92
2022/05/22 02:37:51;;;;;;;0.20;0.20;;;;;;;11.97;100.00;99839.16;7394558;19;20070;-92
2022/05/22 02:40:33;;;;;;;2.63;0.30;;;;;;;11.97;100.00;99833.59;7395068;19;20014;-91
2022/05/22 02:43:00;;;;;;;0.30;0.30;;;;;;;11.97;100.00;99839.16;7395660;19;20077;-92
2022/05/22 02:45:31;;;;;;;0.40;0.40;;;;;;;12.00;100.00;99837.41;7393617;19;20014;-91
2022/05/22 02:48:05;;;;;;;0.30;0.30;;;;;;;11.98;100.00;99829.53;7393874;19;20015;-91
2022/05/22 02:50:32;;;;;;;0.10;0.10;;;;;;;11.98;100.00;99818.38;7395432;19;20019;-91
2022/05/22 02:53:09;;;;;;;4.03;0.52;;;;;;;11.95;100.00;99824.91;7397083;19;20018;-91
2022/05/22 02:55:55;;;;;;;1.65;0.82;;;;;;;11.96;100.00;99826.47;7391777;19;20892;-91
2022/05/22 02:58:22;;;;;;;0.25;0.25;;;;;;;11.97;100.00;99816.84;7392652;19;20028;-91
2022/05/22 03:00:48;;;;;;;1.40;0.45;;;;;;;11.97;100.00;99802.13;7395147;19;20461;-91
2022/05/22 03:03:14;;;;;;;0.25;0.20;;;;;;;11.97;100.00;99813.28;7401126;19;20026;-91
2022/05/22 03:08:25;;;;;;;0.57;0.40;;;;;;;11.91;100.00;99804.06;7393254;19;20080;-93
2022/05/22 03:10:52;;;;;;;0.20;0.20;;;;;;;11.91;100.00;99796.44;7392169;19;20036;-91
2022/05/22 03:13:18;;;;;;;1.27;0.20;;;;;;;11.93;100.00;99805.09;7391496;19;20038;-91
2022/05/22 03:15:44;;;;;;;0.75;0.30;;;;;;;11.91;100.00;99799.22;7394116;19;20018;-91
2022/05/22 03:18:10;;;;;;;0.10;0.10;;;;;;;11.94;100.00;99795.47;7395962;19;20045;-90
2022/05/22 03:20:36;;;;;;;0.10;0.10;;;;;;;11.97;100.00;99793.75;7395379;19;20022;-91
2022/05/22 03:23:03;;;;;;;0.32;0.30;;;;;;;11.99;100.00;99794.78;7398048;19;20019;-91
2022/05/22 03:25:29;;;;;;;0.52;0.20;;;;;;;11.99;100.00;99797.59;7391720;19;20010;-91
2022/05/22 03:27:56;;;;;;;11.18;1.10;;;;;;;12.02;100.00;99796.59;7390969;19;20007;-90
2022/05/22 03:30:25;;;;;;;1.13;0.40;;;;;;;12.05;100.00;99792.06;7390305;19;20070;-91
2022/05/22 03:33:08;;;;;;;0.30;0.30;;;;;;;12.05;100.00;99789.28;7396719;19;20370;-91
2022/05/22 03:35:36;;;;;;;0.10;0.10;;;;;;;12.05;100.00;99795.63;7392491;19;20023;-91
2022/05/22 03:38:09;;;;;;;0.22;0.22;;;;;;;11.99;100.00;99780.06;7393839;19;20317;-91
2022/05/22 03:40:45;;;;;;;0.30;0.30;;;;;;;11.99;100.00;99780.06;7393521;19;20011;-91
2022/05/22 03:43:16;;;;;;;4.63;0.35;;;;;;;12.02;100.00;99779.06;7398550;19;20011;-90
2022/05/22 03:45:44;;;;;;;0.30;0.30;;;;;;;11.97;100.00;99780.56;7392013;19;20023;-91
2022/05/22 03:48:11;;;;;;;0.50;0.43;;;;;;;11.95;100.00;99779.50;7389584;19;20021;-91
2022/05/22 03:50:39;;;;;;;0.82;0.20;;;;;;;11.96;100.00;99781.03;7390217;19;20011;-91
2022/05/22 03:53:06;;;;;;;0.57;0.40;;;;;;;11.94;100.00;99784.31;7395786;19;20412;-91
2022/05/22 03:55:42;;;;;;;0.40;0.40;;;;;;;11.96;100.00;99776.22;7390350;19;20018;-91
2022/05/22 03:58:11;;;;;;;;;;;;;;;11.98;100.00;99770.91;7393928;19;20407;-91
2022/05/22 04:00:37;;;;;;;3.50;0.52;;;;;;;11.96;100.00;99765.06;7393760;19;19911;-90
2022/05/22 04:03:06;;;;;;;5.00;1.35;;;;;;;12.00;100.00;99770.41;7396980;19;20014;-91
2022/05/22 04:05:33;;;;;;;0.40;0.40;;;;;;;12.06;100.00;99769.25;7391162;19;20050;-90
2022/05/22 04:08:02;;;;;;;8.27;0.95;;;;;;;12.09;100.00;99764.72;7391307;19;20010;-90
2022/05/22 04:10:44;;;;;;;0.30;0.20;;;;;;;12.12;100.00;99755.38;7396860;19;20017;-91
2022/05/22 04:13:10;;;;;;;0.30;0.30;;;;;;;12.15;100.00;99760.72;7401128;19;20018;-91
2022/05/22 04:15:37;;;;;;;0.38;0.30;;;;;;;12.18;100.00;99759.78;7397352;19;20023;-91
2022/05/22 04:18:05;;;;;;;0.43;0.38;;;;;;;12.17;100.00;99755.44;7400618;19;20029;-91
2022/05/22 04:20:32;;;;;;;0.28;0.28;;;;;;;11.96;100.00;99755.91;7399997;19;20011;-93
2022/05/22 04:26:13;;;;;;;8.02;0.70;;;;;;;12.09;100.00;99762.69;7396319;19;20457;-92
2022/05/22 04:28:40;;;;;;;1.75;0.15;;;;;;;11.94;100.00;99752.84;7401287;19;20032;-92
2022/05/22 04:31:13;;;;;;;0.25;0.25;;;;;;;11.87;100.00;99748.44;7399913;19;20461;-93
2022/05/22 04:33:59;;;;;;;1.05;0.80;;;;;;;11.84;100.00;99757.81;7399811;19;20015;-94
2022/05/22 04:36:25;;;;;;;0.40;0.20;;;;;;;11.87;100.00;99742.84;7399034;19;20014;-94
2022/05/22 04:38:51;;;;;;;0.20;0.20;;;;;;;11.87;100.00;99747.66;7398750;19;20701;-94
2022/05/22 04:41:18;;;;;;;0.25;0.10;;;;;;;11.94;100.00;99744.47;7400453;19;20031;-94
2022/05/22 04:43:44;;;;;;;0.10;0.10;;;;;;;11.99;100.00;99741.00;7398334;19;20017;-94
2022/05/22 04:46:10;;;;;;;0.50;0.20;;;;;;;12.07;100.00;99737.28;7396958;19;20034;-94
2022/05/22 04:48:37;;;;;;;3.08;0.82;;;;;;;12.15;100.00;99732.81;7398938;19;20038;-94
2022/05/22 04:51:04;;;;;;;0.57;0.28;;;;;;;12.19;100.00;99733.38;7398004;19;20052;-94
2022/05/22 04:53:35;;;;;;;0.15;0.15;;;;;;;12.27;100.00;99732.94;7402921;19;20015;-94
2022/05/22 04:56:22;;;;;;;1.17;0.20;;;;;;;12.30;100.00;99737.56;7398794;19;20018;-94
2022/05/22 04:58:54;;;;;;;0.90;0.57;;;;;;;12.33;100.00;99742.94;7399351;19;20021;-94
2022/05/22 05:01:23;;;;;;;0.22;0.10;;;;;;;12.37;100.00;99734.31;7399338;19;20100;-95
2022/05/22 05:04:06;;;;;;;2.67;0.20;;;;;;;12.45;100.00;99739.00;7396275;19;20018;-94
2022/05/22 05:06:47;;;;;;;5.25;0.40;;;;;;;12.50;100.00;99740.31;7398145;19;20010;-93
2022/05/22 05:09:36;;;;;;;9.43;2.53;;;;;;;12.48;100.00;99738.03;7398267;19;20011;-94
2022/05/22 05:12:09;;;;;;;1.92;0.70;;;;;;;12.47;100.00;99746.91;7399916;19;20829;-93
2022/05/22 05:14:37;;;;;;;0.70;0.20;;;;;;;12.42;100.00;99744.81;7395628;19;20014;-94
2022/05/22 05:17:11;;;;;;;0.98;0.22;;;;;;;12.47;100.00;99742.09;7397927;19;20156;-94
2022/05/22 05:19:39;;;;;;;0.60;0.35;;;;;;;12.49;100.00;99744.38;7396258;19;20030;-93
2022/05/22 05:22:06;;;;;;;3.00;0.85;;;;;;;12.49;100.00;99744.38;7398486;19;20096;-93
2022/05/22 05:24:33;;;;;;;0.28;0.28;;;;;;;12.53;100.00;99733.75;7397676;19;20002;-94
2022/05/22 05:27:01;;;;;;;0.93;0.50;;;;;;;12.54;100.00;99743.69;7398759;19;20449;-90
2022/05/22 05:29:27;;;;;;;0.10;0.10;;;;;;;12.52;100.00;99746.19;7395609;19;20480;-91
2022/05/22 05:31:53;;;;;;;0.60;0.47;;;;;;;12.51;100.00;99747.44;7396454;19;20010;-91
2022/05/22 05:34:21;;;;;;;0.20;0.15;;;;;;;12.52;100.00;99732.97;7394734;19;20018;-91
2022/05/22 05:37:14;;;;;;;1.08;0.40;;;;;;;12.55;100.00;99734.81;7396616;19;20019;-91
2022/05/22 05:39:44;;;;;;;0.20;0.20;;;;;;;12.54;100.00;99726.94;7396264;19;20007;-92
2022/05/22 05:42:32;;;;;;;0.10;0.10;;;;;;;12.58;100.00;99730.25;7399234;19;20017;-90
2022/05/22 05:44:59;;;;;;;0.30;0.20;;;;;;;12.61;100.00;99729.25;7394865;19;20019;-89
2022/05/22 05:47:28;;;;;;;0.20;0.10;;;;;;;12.61;100.00;99727.25;7394141;19;20018;-91
2022/05/22 05:50:21;;;;;;;2.40;0.77;;;;;;;12.59;100.00;99729.75;7393402;19;20533;-91
2022/05/22 05:53:02;;;;;;;1.70;0.52;;;;;;;12.61;100.00;99734.84;7397488;19;20018;-89
2022/05/22 05:55:50;;;;;;;0.90;0.22;;;;;;;12.64;100.00;99726.28;7394657;19;20006;-89
2022/05/22 05:58:40;;;;;;;1.85;0.40;;;;;;;12.66;100.00;99718.16;7393918;19;20036;-89
2022/05/22 06:01:19;;;;;;;3.60;0.30;;;;;;;12.66;100.00;99717.38;7394865;19;20019;-90
2022/05/22 06:03:46;;;;;;;0.17;0.17;;;;;;;12.68;100.00;99717.66;7394275;19;20360;-89
2022/05/22 06:06:14;;;;;;;0.47;0.40;;;;;;;12.69;100.00;99719.94;7393151;19;20018;-89
2022/05/22 06:08:42;;;;;;;0.70;0.35;;;;;;;12.71;100.00;99711.09;7394301;19;20018;-89
2022/05/22 06:11:26;;;;;;;0.10;0.10;;;;;;;12.74;100.00;99721.25;7397069;19;20014;-89
2022/05/22 06:13:54;;;;;;;7.32;0.43;;;;;;;12.77;100.00;99721.06;7393673;19;20026;-89
2022/05/22 06:16:20;;;;;;;0.10;0.10;;;;;;;12.85;100.00;99713.00;7392604;19;20468;-88
2022/05/22 06:18:57;;;;;;;0.82;0.40;;;;;;;12.92;100.00;99715.34;7394317;19;20010;-89
2022/05/22 06:21:23;;;;;;;1.25;0.20;;;;;;;12.97;100.00;99717.44;7395847;19;20014;-89
2022/05/22 06:23:50;;;;;;;4.43;0.52;;;;;;;13.05;100.00;99712.19;7397629;19;20018;-89
2022/05/22 06:26:35;;;;;;;0.50;0.50;;;;;;;13.11;100.00;99710.19;7391791;19;20026;-89
2022/05/22 06:29:20;;;;;;;0.28;0.28;;;;;;;13.16;100.00;99713.03;7396561;19;20022;-89
2022/05/22 06:32:06;;;;;;;0.45;0.17;;;;;;;13.23;100.00;99717.41;7394930;19;20411;-90
2022/05/22 06:34:42;;;;;;;0.13;0.13;;;;;;;13.29;100.00;99709.81;7391758;19;20033;-91
2022/05/22 06:37:27;;;;;;;1.55;0.65;;;;;;;13.34;100.00;99707.06;7392076;19;20037;-85
2022/05/22 06:40:25;;;;;;;0.20;0.20;;;;;;;13.40;100.00;99707.09;7391399;19;20086;-93
2022/05/22 06:43:02;;;;;;;0.40;0.30;;;;;;;13.43;100.00;99704.06;7398886;19;20018;-92
2022/05/22 06:45:48;;;;;;;0.65;0.55;;;;;;;13.45;100.00;99700.75;7392970;19;20014;-93
2022/05/22 06:48:43;;;;;;;0.40;0.20;;;;;;;13.45;100.00;99700.75;7393941;19;20010;-92
2022/05/22 06:51:32;;;;;;;1.00;0.10;;;;;;;13.49;100.00;99696.47;7393592;19;20007;-92
2022/05/22 06:54:07;;;;;;;7.10;0.25;;;;;;;13.57;100.00;99694.00;7395774;19;20521;-92
2022/05/22 06:56:52;;;;;;;1.80;0.52;;;;;;;13.67;100.00;99698.88;7391712;19;20018;-91
2022/05/22 06:59:35;;;;;;;0.28;0.28;;;;;;;13.81;100.00;99693.59;7393562;19;20062;-91
2022/05/22 07:02:36;;;;;;;3.05;0.40;;;;;;;13.99;100.00;99693.19;7396829;19;20089;-92
2022/05/22 07:05:12;;;;;;;0.43;0.25;;;;;;;14.10;100.00;99682.00;7391924;19;20022;-90
2022/05/22 07:08:01;;;;;;;0.10;0.10;;;;;;;14.14;100.00;99685.34;7392170;19;20594;-91
2022/05/22 07:13:43;;;;;;;0.45;0.45;;;;;;;14.26;100.00;99686.91;7391574;19;20904;-93
2022/05/22 07:16:25;;;;;;;1.90;0.40;;;;;;;14.42;100.00;99686.97;7392245;19;20014;-92
2022/05/22 07:19:08;;;;;;;1.50;0.40;;;;;;;14.54;100.00;99675.78;7392498;19;20024;-93
2022/05/22 07:22:07;;;;;;;0.10;0.10;;;;;;;14.65;100.00;99670.97;7393038;19;20022;-93
2022/05/22 07:24:45;;;;;;;2.50;0.35;;;;;;;14.70;100.00;99670.22;7392722;19;20030;-92
2022/05/22 07:27:19;;;;;;;1.20;0.47;;;;;;;14.79;100.00;99675.56;7390674;19;20034;-94
2022/05/22 07:29:57;;;;;;;0.50;0.43;;;;;;;14.91;100.00;99665.91;7391158;19;20025;-93
2022/05/22 07:32:42;;;;;;;6.22;0.22;;;;;;;15.03;100.00;99667.41;7394128;19;20007;-92
2022/05/22 07:35:41;;;;;;;0.10;0.10;;;;;;;15.17;100.00;99657.97;7388310;19;20476;-93
2022/05/22 07:38:25;;;;;;;0.63;0.30;;;;;;;15.42;100.00;99661.00;7395024;19;20019;-93
2022/05/22 07:41:03;;;;;;;0.40;0.20;;;;;;;15.69;100.00;99654.56;7394757;19;20017;-93
2022/05/22 07:43:39;;;;;;;0.10;0.10;;;;;;;15.91;100.00;99648.88;7395191;19;20037;-93
2022/05/22 07:46:27;;;;;;;1.45;0.10;;;;;;;16.07;100.00;99650.81;7400148;19;20014;-93
2022/05/22 07:52:29;;;;;;;0.30;0.20;;;;;;;16.15;100.00;99637.78;7404431;19;20014;-91
2022/05/22 07:55:24;;;;;;;3.22;0.13;;;;;;;16.13;100.00;99631.91;7394200;19;20506;-90
2022/05/22 07:58:06;;;;;;;0.68;0.15;;;;;;;16.19;100.00;99629.84;7403653;19;20340;-91
2022/05/22 08:00:41;;;;;;;0.30;0.20;;;;;;;16.36;100.00;99638.16;7399995;19;20021;-91
2022/05/22 08:03:15;;;;;;;0.13;0.13;;;;;;;16.51;100.00;99638.59;7402733;19;20025;-91
2022/05/22 08:05:51;;;;;;;0.30;0.17;;;;;;;16.66;100.00;99633.38;7402915;19;20017;-92
2022/05/22 08:08:17;;;;;;;2.38;0.35;;;;;;;16.85;100.00;99630.69;7397927;19;20021;-92
2022/05/22 08:10:58;;;;;;;0.65;0.10;;;;;;;17.03;100.00;99627.19;7397752;19;20039;-91
2022/05/22 08:13:29;;;;;;;0.65;0.20;;;;;;;17.13;100.00;99631.19;7395166;19;20006;-91
2022/05/22 08:15:55;;;;;;;1.55;0.38;;;;;;;17.21;100.00;99632.13;7396476;19;20018;-92
2022/05/22 08:18:34;;;;;;;0.08;0.00;;;;;;;17.21;100.00;99640.56;7399338;19;20011;-92
2022/05/22 08:21:02;;;;;;;0.30;0.20;;;;;;;17.15;100.00;99639.88;7399522;19;20006;-92
2022/05/22 08:23:30;;;;;;;2.67;0.17;;;;;;;17.13;100.00;99646.00;7402526;19;20010;-91
2022/05/22 08:26:02;;;;;;;1.10;0.20;;;;;;;17.17;100.00;99634.47;7396296;19;20019;-92
2022/05/22 08:28:31;;;;;;;0.00;0.00;;;;;;;17.30;100.00;99634.59;7398735;19;20037;-93
2022/05/22 08:30:57;;;;;;;2.28;0.10;;;;;;;17.40;100.00;99627.31;7398266;19;20031;-93
2022/05/22 08:33:24;;;;;;;1.98;0.40;;;;;;;17.62;100.00;99627.13;7396448;19;20016;-92
2022/05/22 08:35:51;;;;;;;0.98;0.32;;;;;;;17.79;100.00;99630.50;7396997;19;20073;-91
2022/05/22 08:38:18;;;;;;;1.70;0.15;;;;;;;17.87;100.00;99625.78;7399139;19;20029;-92
2022/05/22 08:40:52;;;;;;;2.33;0.45;;;;;;;17.92;100.00;99622.13;7402592;19;20019;-93
2022/05/22 08:43:38;;;;;;;3.72;0.10;;;;;;;17.93;100.00;99606.75;7398266;19;20019;-91
2022/05/22 08:46:13;;;;;;;1.02;0.15;;;;;;;18.07;100.00;99614.00;7398004;19;20028;-91
2022/05/22 08:48:56;;;;;;;0.75;0.75;;;;;;;18.17;100.00;99609.50;7396697;19;20086;-92
2022/05/22 08:52:04;;;;;;;0.10;0.00;;;;;;;18.17;100.00;99597.44;7398777;19;20006;-92
2022/05/22 08:54:34;;;;;;;0.55;0.20;;;;;;;18.16;100.00;99602.34;7397453;19;20475;-92
2022/05/22 08:59:53;;;;;;;0.10;0.00;;;;;;;18.16;100.00;99613.63;7399761;19;20014;-92
2022/05/22 09:02:25;;;;;;;3.53;0.13;;;;;;;18.27;100.00;99597.81;7400984;19;20010;-93
2022/05/22 09:05:11;;;;;;;0.00;0.00;;;;;;;18.19;100.00;99601.25;7396697;19;20367;-92
2022/05/22 09:07:56;;;;;;;1.13;0.10;;;;;;;18.34;100.00;99606.44;7396044;19;20366;-91
2022/05/22 09:10:48;;;;;;;0.38;0.10;;;;;;;18.51;100.00;99595.69;7396614;19;20377;-93
2022/05/22 09:13:26;;;;;;;2.03;0.10;;;;;;;18.93;100.00;99588.31;7394867;19;20050;-91
2022/05/22 09:16:10;;;;;;;0.90;0.30;;;;;;;19.53;100.00;99594.16;7395834;19;20052;-91
2022/05/22 09:18:46;;;;;;;1.60;0.20;;;;;;;19.97;100.00;99592.47;7397812;19;20074;-90
2022/05/22 09:21:31;;;;;;;1.08;0.25;;;;;;;20.06;100.00;99589.19;7397302;19;20010;-91
2022/05/22 09:24:03;;;;;;;0.40;0.10;;;;;;;20.09;100.00;99579.63;7403087;19;20031;-91
2022/05/22 09:26:46;;;;;;;0.10;0.10;;;;;;;19.98;100.00;99571.38;7393621;19;20035;-91
2022/05/22 09:29:27;;;;;;;2.17;0.20;;;;;;;20.12;100.00;99567.22;7398668;19;20042;-89
2022/05/22 09:31:53;;;;;;;4.05;1.08;;;;;;;20.24;100.00;99565.69;7398787;19;20472;-92
2022/05/22 09:34:31;;;;;;;0.55;0.10;;;;;;;20.06;100.00;99556.03;7396490;19;20022;-88
2022/05/22 09:37:09;;;;;;;0.63;0.10;;;;;;;20.11;100.00;99557.22;7396623;19;20014;-89
2022/05/22 09:39:56;;;;;;;0.10;0.10;;;;;;;19.96;100.00;99562.69;7399499;19;20018;-88
2022/05/22 09:42:40;;;;;;;1.20;0.10;;;;;;;19.64;100.00;99543.81;7399293;19;20011;-89
2022/05/22 09:45:15;;;;;;;2.53;0.30;;;;;;;19.74;100.00;99549.81;7395856;19;20015;-89
2022/05/22 09:47:54;;;;;;;0.10;0.10;;;;;;;19.82;100.00;99536.50;7395313;19;20013;-89
2022/05/22 09:50:33;;;;;;;0.10;0.10;;;;;;;19.90;100.00;99530.97;7395219;19;20789;-89
2022/05/22 09:53:07;;;;;;;0.98;0.17;;;;;;;19.91;100.00;99518.34;7398009;19;20023;-89
2022/05/22 09:55:51;;;;;;;0.90;0.80;;;;;;;19.99;100.00;99517.13;7394992;19;20018;-89
2022/05/22 09:58:47;;;;;;;0.13;0.10;;;;;;;20.29;100.00;99505.41;7394719;19;20021;-88
2022/05/22 10:01:40;;;;;;;0.95;0.17;;;;;;;20.29;100.00;99499.75;7396222;19;20022;-87
2022/05/22 10:04:28;;;;;;;1.25;0.25;;;;;;;20.25;100.00;99493.66;7392189;19;20014;-88
2022/05/22 10:07:12;;;;;;;2.90;0.40;;;;;;;20.57;100.00;99488.50;7393832;19;20038;-88
2022/05/22 10:10:10;;;;;;;0.10;0.00;;;;;;;21.14;100.00;99487.22;7394495;19;20011;-87
2022/05/22 10:12:51;;;;;;;0.13;0.03;;;;;;;21.18;100.00;99486.84;7397318;19;20500;-88
2022/05/22 10:15:26;;;;;;;1.45;0.17;;;;;;;21.18;100.00;99471.94;7393869;19;20022;-88
2022/05/22 10:18:10;;;;;;;0.88;0.30;;;;;;;21.32;100.00;99465.59;7396275;19;20132;-88
2022/05/22 10:21:00;;;;;;;6.05;0.22;;;;;;;21.67;100.00;99464.03;7393658;19;20506;-87
2022/05/22 10:23:59;;;;;;;0.30;0.10;;;;;;;21.68;100.00;99462.69;7397600;19;20035;-85
2022/05/22 10:26:35;;;;;;;2.92;0.32;;;;;;;21.53;100.00;99465.47;7393270;19;20010;-87
2022/05/22 10:29:15;;;;;;;0.10;0.00;;;;;;;21.52;100.00;99463.97;7394439;19;20014;-91
2022/05/22 10:32:00;;;;;;;0.80;0.10;;;;;;;21.60;100.00;99461.91;7396852;19;20011;-88
2022/05/22 10:34:45;;;;;;;2.47;0.10;;;;;;;21.76;100.00;99469.16;7393438;19;20019;-91
2022/05/22 10:37:20;;;;;;;0.10;0.10;;;;;;;21.75;100.00;99457.06;7394115;19;20018;-87
2022/05/22 10:39:47;;;;;;;0.60;0.17;;;;;;;21.52;100.00;99453.41;7393795;19;20014;-89
2022/05/22 10:45:37;;;;;;;2.47;0.00;;;;;;;22.09;100.00;99451.09;7393809;19;20866;-88
2022/05/22 10:48:24;;;;;;;0.00;0.00;;;;;;;22.04;100.00;99446.38;7393043;19;20018;-89
2022/05/22 10:51:09;;;;;;;0.10;0.00;;;;;;;22.06;100.00;99446.56;7391757;19;20021;-89
2022/05/22 10:53:38;;;;;;;0.10;0.05;;;;;;;22.06;100.00;99440.91;7393333;19;20125;-88
2022/05/22 10:56:15;;;;;;;1.23;0.10;;;;;;;22.61;100.00;99446.78;7395973;19;20022;-89
2022/05/22 10:58:56;;;;;;;0.10;0.10;;;;;;;22.84;100.00;99443.94;7394023;19;20035;-89
2022/05/22 11:01:29;;;;;;;0.47;0.10;;;;;;;22.73;100.00;99436.56;7393222;19;20015;-88
2022/05/22 11:04:10;;;;;;;0.20;0.08;;;;;;;22.92;100.00;99434.06;7392868;19;20014;-89
2022/05/22 11:06:50;;;;;;;1.10;0.10;;;;;;;23.01;100.00;99436.34;7392248;19;20488;-88
2022/05/22 11:09:24;;;;;;;4.18;0.52;;;;;;;23.04;100.00;99420.22;7392917;19;20768;-89
2022/05/22 11:11:50;;;;;;;0.10;0.10;;;;;;;22.61;100.00;99424.84;7396623;19;20026;-90
2022/05/22 11:14:20;;;;;;;0.20;0.10;;;;;;;22.51;100.00;99425.97;7395010;19;20471;-90
2022/05/22 11:16:47;;;;;;;0.40;0.10;;;;;;;22.63;100.00;99419.34;7396019;19;20020;-89
2022/05/22 11:19:26;;;;;;;0.10;0.00;;;;;;;22.63;100.00;99410.84;7396443;19;20019;-86
2022/05/22 11:21:55;;;;;;;0.20;0.20;;;;;;;22.40;100.00;99415.00;7403407;19;20022;-89
2022/05/22 11:24:38;;;;;;;0.30;0.10;;;;;;;21.57;100.00;99415.63;7400138;19;20082;-92
2022/05/22 11:27:16;;;;;;;1.30;0.08;;;;;;;21.79;100.00;99414.16;7403238;19;20019;-92
2022/05/22 11:30:08;;;;;;;0.20;0.10;;;;;;;21.68;100.00;99411.69;7403661;19;20030;-91
2022/05/22 11:32:44;;;;;;;0.55;0.10;;;;;;;21.33;100.00;99413.25;7401555;19;20015;-84
2022/05/22 11:35:44;;;;;;;0.10;0.10;;;;;;;21.30;100.00;99411.56;7392389;19;20018;-84
2022/05/22 11:38:31;;;;;;;0.20;0.20;;;;;;;21.24;100.00;99410.22;7395710;19;20026;-85
2022/05/22 11:41:02;;;;;;;4.93;0.22;;;;;;;21.43;100.00;99417.09;7396591;19;20024;-86
2022/05/22 11:43:38;;;;;;;0.10;0.00;;;;;;;21.15;100.00;99394.53;7396332;19;20049;-86
2022/05/22 11:46:11;;;;;;;0.63;0.17;;;;;;;21.17;100.00;99388.28;7394286;19;20003;-85
2022/05/22 11:48:56;;;;;;;1.10;0.13;;;;;;;21.64;100.00;99377.28;7400007;19;20015;-87
2022/05/22 11:51:28;;;;;;;0.22;0.10;;;;;;;22.36;100.00;99375.66;7398549;19;20014;-87
2022/05/22 11:54:14;;;;;;;0.75;0.25;;;;;;;22.73;100.00;99384.72;7400963;19;20389;-87
2022/05/22 11:56:53;;;;;;;0.13;0.00;;;;;;;22.67;100.00;99387.00;7398250;19;20007;-91
2022/05/22 11:59:27;;;;;;;0.30;0.10;;;;;;;22.66;100.00;99379.78;7405343;19;20010;-90
2022/05/22 12:02:16;;;;;;;0.57;0.20;;;;;;;23.05;100.00;99367.75;7404766;19;20022;-92
2022/05/22 12:05:01;;;;;;;0.25;0.05;;;;;;;23.20;100.00;99364.84;7396969;19;20082;-88
2022/05/22 12:08:03;;;;;;;0.15;0.00;;;;;;;23.34;100.00;99363.31;7389491;19;20484;-84
2022/05/22 12:10:43;;;;;;;0.55;0.25;;;;;;;23.38;100.00;99357.97;7388603;19;20014;-86
2022/05/22 12:13:13;;;;;;;;;;;;;;;23.23;100.00;99352.34;7396561;19;20433;-85
2022/05/22 12:15:55;;;;;;;0.20;0.00;;;;;;;23.20;100.00;99364.84;7395225;19;19926;-92
2022/05/22 12:18:53;;;;;;;1.10;0.30;;;;;;;23.40;100.00;99366.69;7396976;19;20024;-84
2022/05/22 12:21:34;;;;;;;0.15;0.10;;;;;;;23.36;100.00;99360.66;7403383;19;20011;-92
2022/05/22 12:24:01;;;;;;;0.35;0.08;;;;;;;23.43;100.00;99354.19;7404355;19;20433;-91